createdAt,value
2018-03-04T00:01:36.641Z,29.23
2018-03-04T00:04:39.898Z,30.13
2018-03-04T00:07:43.173Z,31.73
2018-03-04T00:10:46.451Z,30.90
2018-03-04T00:13:49.729Z,32.00
2018-03-04T00:16:53.027Z,30.10
2018-03-04T00:19:57.053Z,32.17
2018-03-04T00:23:00.316Z,31.60
2018-03-04T00:26:04.348Z,30.53
2018-03-04T00:29:07.621Z,33.17
2018-03-04T00:32:11.078Z,31.80
2018-03-04T00:35:14.512Z,32.37
2018-03-04T00:38:17.800Z,32.67
2018-03-04T00:41:21.243Z,31.07
2018-03-04T00:44:24.512Z,33.53
2018-03-04T00:47:27.785Z,31.07
2018-03-04T00:50:31.136Z,32.60
2018-03-04T00:53:34.414Z,34.03
2018-03-04T00:56:38.457Z,30.97
2018-03-04T00:59:41.742Z,31.63
2018-03-04T01:02:45.772Z,34.73
2018-03-04T01:05:49.413Z,31.93
2018-03-04T01:08:52.697Z,31.33
2018-03-04T01:11:55.968Z,32.50
2018-03-04T01:14:59.255Z,31.97
2018-03-04T01:18:02.965Z,33.30
2018-03-04T01:21:06.232Z,32.00
2018-03-04T01:24:09.553Z,30.80
2018-03-04T01:27:12.787Z,33.07
2018-03-04T01:30:16.046Z,32.80
2018-03-04T01:33:19.310Z,31.63
2018-03-04T01:36:22.578Z,32.50
2018-03-04T01:39:26.425Z,31.27
2018-03-04T01:42:30.776Z,31.03
2018-03-04T01:45:34.079Z,31.33
2018-03-04T01:48:38.096Z,34.03
2018-03-04T01:51:54.077Z,31.80
2018-03-04T01:54:58.109Z,31.53
2018-03-04T01:58:01.402Z,30.40
2018-03-04T02:01:04.673Z,32.37
2018-03-04T02:04:08.709Z,31.30
2018-03-04T02:07:12.736Z,31.40
2018-03-04T02:10:16.030Z,33.17
2018-03-04T02:13:19.308Z,31.90
2018-03-04T02:16:23.339Z,31.93
2018-03-04T02:19:26.805Z,34.63
2018-03-04T02:22:30.134Z,33.30
2018-03-04T02:25:33.411Z,33.97
2018-03-04T02:28:37.438Z,32.90
2018-03-04T02:31:41.465Z,32.90
2018-03-04T02:34:44.746Z,32.30
2018-03-04T02:37:48.869Z,34.67
2018-03-04T02:40:52.988Z,33.07
2018-03-04T02:43:56.254Z,33.67
2018-03-04T02:46:59.528Z,33.67
2018-03-04T02:50:03.269Z,31.13
2018-03-04T02:53:06.691Z,31.77
2018-03-04T02:56:09.978Z,33.60
2018-03-04T02:59:14.030Z,34.60
2018-03-04T03:02:17.302Z,35.03
2018-03-04T03:05:20.558Z,32.33
2018-03-04T03:08:23.930Z,34.27
2018-03-04T03:11:27.300Z,30.73
2018-03-04T03:14:30.564Z,31.40
2018-03-04T03:17:33.840Z,30.73
2018-03-04T03:20:37.105Z,31.50
2018-03-04T03:23:40.374Z,33.77
2018-03-04T03:26:44.406Z,32.57
2018-03-04T03:29:47.693Z,32.83
2018-03-04T03:32:51.724Z,33.47
2018-03-04T03:35:54.994Z,32.63
2018-03-04T03:38:59.046Z,32.67
2018-03-04T03:42:02.330Z,31.60
2018-03-04T03:45:05.589Z,33.00
2018-03-04T03:48:09.027Z,32.00
2018-03-04T03:51:12.298Z,31.23
2018-03-04T03:54:16.338Z,32.60
2018-03-04T03:57:19.624Z,29.47
2018-03-04T04:00:23.652Z,33.47
2018-03-04T04:03:26.923Z,32.10
2018-03-04T04:06:30.946Z,32.23
2018-03-04T04:09:34.238Z,30.27
2018-03-04T04:12:38.279Z,29.07
2018-03-04T04:15:41.558Z,31.40
2018-03-04T04:18:45.593Z,32.97
2018-03-04T04:21:49.064Z,30.63
2018-03-04T04:24:53.101Z,33.50
2018-03-04T04:27:56.386Z,30.83
2018-03-04T04:31:00.522Z,30.17
2018-03-04T04:34:03.806Z,29.17
2018-03-04T04:37:07.065Z,29.93
2018-03-04T04:40:10.404Z,28.90
2018-03-04T04:43:13.678Z,30.70
2018-03-04T04:46:17.707Z,27.60
2018-03-04T04:49:21.792Z,29.80
2018-03-04T04:52:25.061Z,30.60
2018-03-04T04:55:28.372Z,29.67
2018-03-04T04:58:31.634Z,31.20
2018-03-04T05:01:34.896Z,29.17
2018-03-04T05:04:38.936Z,26.57
2018-03-04T05:07:42.206Z,27.13
2018-03-04T05:10:45.944Z,28.13
2018-03-04T05:13:49.221Z,25.90
2018-03-04T05:16:53.362Z,28.73
2018-03-04T05:19:56.629Z,25.73
2018-03-04T05:23:01.556Z,26.53
2018-03-04T05:26:05.681Z,27.40
2018-03-04T05:29:09.720Z,27.97
2018-03-04T05:32:12.993Z,25.73
2018-03-04T05:35:17.025Z,25.33
2018-03-04T05:38:20.330Z,24.97
2018-03-04T05:41:23.625Z,25.97
2018-03-04T05:44:26.906Z,25.40
2018-03-04T05:47:30.938Z,26.50
2018-03-04T05:50:34.211Z,27.77
2018-03-04T05:53:37.485Z,26.90
2018-03-04T05:56:40.785Z,28.40
2018-03-04T05:59:44.139Z,27.20
2018-03-04T06:02:47.413Z,26.80
2018-03-04T06:05:50.702Z,27.73
2018-03-04T06:08:54.743Z,30.00
2018-03-04T06:11:58.136Z,29.60
2018-03-04T06:15:01.416Z,29.03
2018-03-04T06:18:05.461Z,29.17
2018-03-04T06:21:08.750Z,30.40
2018-03-04T06:24:12.017Z,29.43
2018-03-04T06:27:15.359Z,29.63
2018-03-04T06:30:18.816Z,26.50
2018-03-04T06:33:22.867Z,29.57
2018-03-04T06:36:26.156Z,28.13
2018-03-04T06:39:29.570Z,28.17
2018-03-04T06:42:32.881Z,27.07
2018-03-04T06:45:36.150Z,26.23
2018-03-04T06:48:39.421Z,26.03
2018-03-04T06:51:42.674Z,26.70
2018-03-04T06:54:45.962Z,23.63
2018-03-04T06:57:49.233Z,24.67
2018-03-04T07:00:52.527Z,23.47
2018-03-04T07:03:56.564Z,22.43
2018-03-04T07:06:59.832Z,22.53
2018-03-04T07:10:04.129Z,24.30
2018-03-04T07:13:08.281Z,21.90
2018-03-04T07:16:12.330Z,21.60
2018-03-04T07:19:15.596Z,22.77
2018-03-04T07:22:18.874Z,22.30
2018-03-04T07:25:22.906Z,21.80
2018-03-04T07:28:26.926Z,23.57
2018-03-04T07:31:30.197Z,21.47
2018-03-04T07:34:33.466Z,23.47
2018-03-04T07:37:36.763Z,21.73
2018-03-04T07:40:40.175Z,22.43
2018-03-04T07:43:43.444Z,21.63
2018-03-04T07:46:46.750Z,22.53
2018-03-04T07:49:50.026Z,21.80
2018-03-04T07:52:53.408Z,24.93
2018-03-04T07:55:56.677Z,23.93
2018-03-04T07:58:59.950Z,25.23
2018-03-04T08:02:04.132Z,24.53
2018-03-04T08:05:07.411Z,25.20
2018-03-04T08:08:11.445Z,24.77
2018-03-04T08:11:14.717Z,24.20
2018-03-04T08:14:18.758Z,27.40
2018-03-04T08:17:22.042Z,25.63
2018-03-04T08:20:25.306Z,27.03
2018-03-04T08:23:29.136Z,25.43
2018-03-04T08:26:50.901Z,26.47
2018-03-04T08:29:54.197Z,27.13
2018-03-04T08:32:57.463Z,26.97
2018-03-04T08:36:01.499Z,26.07
2018-03-04T08:39:04.774Z,27.60
2018-03-04T08:42:08.899Z,28.20
2018-03-04T08:45:13.017Z,27.73
2018-03-04T08:48:16.282Z,24.70
2018-03-04T08:51:20.089Z,28.47
2018-03-04T08:55:05.702Z,24.83
2018-03-04T08:58:09.752Z,27.53
2018-03-04T09:01:13.049Z,28.00
2018-03-04T09:04:16.327Z,30.03
2018-03-04T09:07:19.604Z,26.30
2018-03-04T09:10:22.972Z,27.07
2018-03-04T09:13:26.358Z,27.50
2018-03-04T09:16:29.633Z,27.00
2018-03-04T09:19:32.968Z,25.03
2018-03-04T09:22:36.413Z,22.20
2018-03-04T09:25:39.728Z,22.50
2018-03-04T09:28:43.193Z,24.20
2018-03-04T09:31:46.524Z,23.07
2018-03-04T09:34:50.095Z,21.70
2018-03-04T09:37:53.516Z,22.53
2018-03-04T09:40:57.570Z,23.00
2018-03-04T09:44:00.848Z,22.10
2018-03-04T09:47:04.158Z,22.33
2018-03-04T09:50:07.442Z,24.20
2018-03-04T09:53:10.697Z,22.00
2018-03-04T09:56:14.008Z,23.00
2018-03-04T09:59:18.205Z,23.43
2018-03-04T10:02:21.471Z,23.50
2018-03-04T10:05:24.743Z,24.30
2018-03-04T10:08:28.006Z,23.13
2018-03-04T10:11:31.275Z,25.90
2018-03-04T10:14:34.540Z,25.30
2018-03-04T10:17:37.848Z,24.53
2018-03-04T10:20:41.849Z,24.53
2018-03-04T10:23:45.118Z,22.27
2018-03-04T10:26:49.153Z,21.47
2018-03-04T10:29:52.410Z,20.97
2018-03-04T10:32:55.757Z,21.50
2018-03-04T10:35:59.121Z,20.43
2018-03-04T10:39:02.581Z,17.17
2018-03-04T10:42:05.871Z,18.13
2018-03-04T10:45:09.999Z,17.87
2018-03-04T10:48:13.347Z,19.57
2018-03-04T10:51:17.856Z,20.77
2018-03-04T10:54:21.197Z,19.73
2018-03-04T10:57:24.461Z,21.07
2018-03-04T11:00:27.746Z,18.00
2018-03-04T11:03:31.029Z,20.63
2018-03-04T11:06:39.814Z,20.67
2018-03-04T11:09:48.601Z,14.77
2018-03-04T11:12:52.069Z,12.77
2018-03-04T11:15:56.201Z,11.50
2018-03-04T11:19:00.229Z,10.27
2018-03-04T11:22:03.847Z,11.17
2018-03-04T11:25:07.118Z,12.53
2018-03-04T11:28:11.237Z,11.97
2018-03-04T11:31:14.530Z,15.40
2018-03-04T11:34:17.784Z,11.93
2018-03-04T11:37:21.069Z,11.20
2018-03-04T11:40:24.333Z,9.83
2018-03-04T11:43:27.605Z,10.53
2018-03-04T11:46:30.861Z,10.33
2018-03-04T11:49:34.130Z,10.13
2018-03-04T11:52:38.267Z,10.30
2018-03-04T11:55:41.525Z,8.17
2018-03-04T11:58:44.789Z,8.90
2018-03-04T12:01:48.165Z,8.63
2018-03-04T12:04:51.675Z,8.87
2018-03-04T12:07:54.939Z,10.10
2018-03-04T12:10:58.236Z,10.33
2018-03-04T12:14:01.521Z,9.63
2018-03-04T12:17:04.788Z,9.33
2018-03-04T12:20:08.062Z,10.17
2018-03-04T12:23:11.381Z,8.97
2018-03-04T12:26:14.703Z,8.30
2018-03-04T12:29:17.998Z,6.43
2018-03-04T12:32:21.297Z,6.07
2018-03-04T12:35:24.562Z,7.73
2018-03-04T12:38:27.871Z,9.57
2018-03-04T12:41:31.134Z,8.17
2018-03-04T12:44:35.289Z,7.70
2018-03-04T12:47:38.576Z,9.00
2018-03-04T12:50:41.842Z,9.53
2018-03-04T12:53:45.898Z,10.30
2018-03-04T12:56:49.164Z,9.30
2018-03-04T12:59:53.276Z,9.20
2018-03-04T13:02:57.300Z,9.53
2018-03-04T13:06:01.421Z,9.73
2018-03-04T13:09:05.548Z,9.40
2018-03-04T13:12:08.878Z,11.60
2018-03-04T13:15:12.132Z,12.93
2018-03-04T13:18:16.282Z,10.47
2018-03-04T13:21:19.653Z,13.40
2018-03-04T13:24:23.684Z,11.70
2018-03-04T13:27:26.982Z,11.87
2018-03-04T13:30:30.366Z,13.67
2018-03-04T13:33:33.621Z,14.80
2018-03-04T13:36:36.952Z,13.27
2018-03-04T13:39:40.226Z,13.37
2018-03-04T13:42:43.496Z,13.83
2018-03-04T13:45:46.793Z,12.80
2018-03-04T13:48:50.602Z,14.50
2018-03-04T13:51:53.870Z,13.83
2018-03-04T13:54:57.188Z,15.30
2018-03-04T13:58:00.539Z,14.63
2018-03-04T14:01:03.815Z,15.37
2018-03-04T14:04:07.885Z,14.10
2018-03-04T14:07:11.159Z,14.40
2018-03-04T14:10:14.430Z,14.15
2018-03-04T14:13:18.455Z,14.67
2018-03-04T14:16:21.780Z,12.70
2018-03-04T14:19:25.069Z,12.87
2018-03-04T14:22:29.349Z,12.85
2018-03-04T14:25:33.409Z,12.32
2018-03-04T14:28:36.711Z,12.02
2018-03-04T14:31:39.978Z,11.33
2018-03-04T14:34:44.048Z,10.43
2018-03-04T14:37:47.470Z,9.70
2018-03-04T14:40:51.522Z,9.67
2018-03-04T14:43:55.557Z,9.90
2018-03-04T14:46:59.894Z,9.20
2018-03-04T14:50:03.420Z,9.23
2018-03-04T14:53:07.503Z,9.00
2018-03-04T14:56:10.766Z,7.97
2018-03-04T14:59:14.103Z,8.20
2018-03-04T15:02:17.347Z,8.55
2018-03-04T15:05:20.637Z,8.97
2018-03-04T15:08:23.899Z,9.33
2018-03-04T15:11:27.185Z,10.50
2018-03-04T15:14:30.693Z,10.18
2018-03-04T15:17:33.957Z,10.68
2018-03-04T15:20:37.329Z,10.70
2018-03-04T15:23:41.353Z,10.60
2018-03-04T15:26:44.629Z,11.10
2018-03-04T15:29:48.685Z,16.40
2018-03-04T15:32:56.913Z,11.93
2018-03-04T15:36:00.197Z,10.90
2018-03-04T15:39:03.460Z,13.30
2018-03-04T15:42:07.507Z,14.50
2018-03-04T15:45:11.940Z,10.80
2018-03-04T15:48:15.197Z,13.13
2018-03-04T15:51:18.610Z,11.57
2018-03-04T15:54:22.658Z,10.70
2018-03-04T15:57:25.929Z,11.20
2018-03-04T16:00:31.482Z,11.32
2018-03-04T16:03:34.750Z,11.27
2018-03-04T16:06:38.025Z,10.93
2018-03-04T16:09:41.306Z,10.35
2018-03-04T16:12:44.578Z,10.73
2018-03-04T16:15:48.615Z,10.47
2018-03-04T16:18:51.886Z,11.00
2018-03-04T16:21:56.122Z,10.10
2018-03-04T16:25:01.391Z,10.37
2018-03-04T16:28:04.671Z,9.98
2018-03-04T16:31:08.712Z,12.17
2018-03-04T16:34:11.981Z,10.80
2018-03-04T16:37:16.166Z,10.53
2018-03-04T16:40:19.503Z,10.43
2018-03-04T16:43:22.823Z,10.33
2018-03-04T16:46:26.869Z,11.33
2018-03-04T16:49:31.200Z,10.93
2018-03-04T16:52:34.556Z,12.10
2018-03-04T16:55:37.950Z,11.20
2018-03-04T16:58:42.646Z,12.43
2018-03-04T17:01:46.681Z,13.23
2018-03-04T17:04:49.941Z,13.37
2018-03-04T17:07:53.211Z,11.93
2018-03-04T17:10:56.701Z,37.47
2018-03-04T17:14:00.026Z,71.90
2018-03-04T17:17:03.313Z,46.47
2018-03-04T17:20:06.649Z,25.90
2018-03-04T17:23:10.010Z,16.27
2018-03-04T17:26:13.597Z,17.13
2018-03-04T17:29:17.641Z,13.90
2018-03-04T17:32:20.982Z,14.17
2018-03-04T17:35:24.333Z,13.27
2018-03-04T17:38:27.618Z,14.73
2018-03-04T17:41:32.900Z,13.50
2018-03-04T17:44:36.209Z,14.77
2018-03-04T17:47:39.477Z,14.40
2018-03-04T17:50:42.756Z,13.70
2018-03-04T17:53:46.837Z,15.65
2018-03-04T17:56:50.277Z,16.83
2018-03-04T17:59:53.574Z,15.13
2018-03-04T18:02:56.887Z,15.30
2018-03-04T18:06:00.231Z,15.50
2018-03-04T18:09:03.503Z,18.63
2018-03-04T18:12:06.954Z,17.27
2018-03-04T18:15:10.987Z,17.77
2018-03-04T18:18:14.277Z,19.73
2018-03-04T18:21:18.309Z,19.90
2018-03-04T18:24:21.647Z,19.33
2018-03-04T18:27:24.930Z,17.60
2018-03-04T18:30:28.213Z,20.03
2018-03-04T18:33:32.246Z,21.43
2018-03-04T18:36:35.517Z,23.17
2018-03-04T18:39:38.793Z,22.36
2018-03-04T18:42:42.081Z,24.83
2018-03-04T18:45:45.457Z,24.02
2018-03-04T18:48:49.547Z,24.60
2018-03-04T18:51:52.886Z,23.93
2018-03-04T18:54:56.160Z,23.70
2018-03-04T18:58:00.293Z,21.73
2018-03-04T19:01:04.315Z,24.67
2018-03-04T19:04:08.026Z,25.13
2018-03-04T19:07:12.275Z,23.38
2018-03-04T19:10:15.653Z,23.87
2018-03-04T19:13:19.733Z,22.73
2018-03-04T19:16:23.803Z,23.47
2018-03-04T19:19:27.453Z,23.10
2018-03-04T19:22:30.745Z,24.02
2018-03-04T19:25:34.830Z,22.20
2018-03-04T19:28:38.165Z,22.63
2018-03-04T19:31:41.458Z,23.27
2018-03-04T19:34:44.734Z,22.73
2018-03-04T19:37:48.005Z,23.12
2018-03-04T19:40:51.302Z,23.53
2018-03-04T19:43:54.621Z,24.47
2018-03-04T19:46:57.885Z,24.13
2018-03-04T19:50:01.935Z,24.10
2018-03-04T19:53:06.710Z,24.63
2018-03-04T19:56:10.001Z,23.52
2018-03-04T19:59:13.279Z,24.67
2018-03-04T20:02:16.665Z,24.37
2018-03-04T20:05:20.724Z,23.87
2018-03-04T20:08:24.036Z,22.17
2018-03-04T20:11:27.396Z,24.77
2018-03-04T20:14:31.540Z,23.57
2018-03-04T20:17:36.813Z,23.20
2018-03-04T20:20:41.826Z,25.00
2018-03-04T20:23:45.133Z,23.10
2018-03-04T20:26:50.742Z,24.45
2018-03-04T20:29:54.353Z,25.62
2018-03-04T20:32:57.655Z,26.03
2018-03-04T20:36:00.937Z,25.30
2018-03-04T20:39:04.199Z,26.07
2018-03-04T20:42:07.489Z,28.10
2018-03-04T20:45:10.759Z,25.77
2018-03-04T20:48:14.030Z,25.77
2018-03-04T20:51:18.071Z,23.30
2018-03-04T20:54:21.513Z,25.10
2018-03-04T20:57:24.793Z,23.45
2018-03-04T21:00:28.232Z,24.97
2018-03-04T21:03:31.521Z,26.70
2018-03-04T21:06:34.874Z,24.17
2018-03-04T21:09:38.152Z,24.77
2018-03-04T21:12:42.190Z,24.07
2018-03-04T21:15:45.451Z,26.47
2018-03-04T21:18:49.491Z,24.87
2018-03-04T21:21:52.759Z,27.15
2018-03-04T21:24:56.090Z,25.15
2018-03-04T21:27:59.360Z,25.37
2018-03-04T21:31:02.620Z,26.47
2018-03-04T21:34:05.989Z,26.47
2018-03-04T21:37:09.261Z,26.47
2018-03-04T21:40:13.303Z,25.23
2018-03-04T21:43:16.612Z,25.03
2018-03-04T21:46:19.883Z,25.60
2018-03-04T21:49:23.152Z,27.17
2018-03-04T21:52:26.472Z,26.47
2018-03-04T21:55:29.718Z,26.17
2018-03-04T21:58:33.773Z,26.33
2018-03-04T22:01:37.057Z,28.47
2018-03-04T22:04:40.320Z,26.23
2018-03-04T22:07:44.388Z,25.15
2018-03-04T22:10:47.656Z,26.13
2018-03-04T22:13:50.932Z,25.93
2018-03-04T22:16:54.971Z,27.53
2018-03-04T22:19:58.242Z,28.05
2018-03-04T22:23:02.278Z,28.50
2018-03-04T22:26:05.537Z,27.67
2018-03-04T22:29:09.631Z,28.40
2018-03-04T22:32:12.899Z,26.77
2018-03-04T22:35:16.931Z,27.73
2018-03-04T22:38:20.204Z,27.60
2018-03-04T22:41:24.233Z,27.53
2018-03-04T22:44:27.518Z,27.53
2018-03-04T22:47:31.566Z,28.87
2018-03-04T22:50:34.826Z,27.87
2018-03-04T22:53:40.133Z,28.38
2018-03-04T22:56:43.399Z,26.50
2018-03-04T22:59:46.677Z,28.43
2018-03-04T23:02:50.099Z,26.53
2018-03-04T23:05:53.349Z,26.80
2018-03-04T23:08:56.620Z,28.10
2018-03-04T23:12:00.760Z,26.63
2018-03-04T23:15:04.038Z,26.47
2018-03-04T23:18:08.076Z,29.03
2018-03-04T23:21:11.343Z,28.17
2018-03-04T23:24:14.638Z,29.70
2018-03-04T23:27:17.910Z,27.58
2018-03-04T23:30:21.962Z,26.92
2018-03-04T23:33:25.637Z,26.77
2018-03-04T23:36:29.671Z,26.00
2018-03-04T23:39:32.960Z,27.27
2018-03-04T23:42:36.257Z,28.57
2018-03-04T23:45:39.537Z,26.87
2018-03-04T23:48:43.593Z,25.20
2018-03-04T23:51:46.856Z,25.86
2018-03-04T23:54:50.914Z,29.60
2018-03-04T23:57:54.189Z,27.63
